sensor_id;sensor_type;location;lat;lon;timestamp;P1;durP1;ratioP1;P2;durP2;ratioP2
34982;SDS011;21187;50.976;13.720;2023-04-22T00:03:40;14.48;;;6.30;;
34982;SDS011;21187;50.976;13.720;2023-04-22T00:08:43;14.05;;;6.40;;
34982;SDS011;21187;50.976;13.720;2023-04-22T00:13:44;12.02;;;6.13;;
34982;SDS011;21187;50.976;13.720;2023-04-22T00:18:46;15.10;;;6.70;;
34982;SDS011;21187;50.976;13.720;2023-04-22T00:23:49;13.20;;;5.80;;
34982;SDS011;21187;50.976;13.720;2023-04-22T00:28:51;10.82;;;6.30;;
34982;SDS011;21187;50.976;13.720;2023-04-22T00:33:53;11.88;;;6.15;;
34982;SDS011;21187;50.976;13.720;2023-04-22T00:38:55;19.50;;;6.15;;
34982;SDS011;21187;50.976;13.720;2023-04-22T00:43:57;11.63;;;6.10;;
34982;SDS011;21187;50.976;13.720;2023-04-22T00:49:01;14.73;;;7.00;;
34982;SDS011;21187;50.976;13.720;2023-04-22T00:54:03;13.98;;;6.75;;
34982;SDS011;21187;50.976;13.720;2023-04-22T00:59:05;14.18;;;6.93;;
34982;SDS011;21187;50.976;13.720;2023-04-22T01:04:09;12.65;;;6.93;;
34982;SDS011;21187;50.976;13.720;2023-04-22T01:09:14;21.95;;;8.00;;
34982;SDS011;21187;50.976;13.720;2023-04-22T01:14:16;15.07;;;7.50;;
34982;SDS011;21187;50.976;13.720;2023-04-22T01:19:18;17.35;;;7.53;;
34982;SDS011;21187;50.976;13.720;2023-04-22T01:24:20;19.25;;;7.50;;
34982;SDS011;21187;50.976;13.720;2023-04-22T01:29:22;12.55;;;7.13;;
34982;SDS011;21187;50.976;13.720;2023-04-22T01:34:25;20.80;;;8.45;;
34982;SDS011;21187;50.976;13.720;2023-04-22T01:39:27;17.23;;;8.50;;
34982;SDS011;21187;50.976;13.720;2023-04-22T01:44:30;13.48;;;7.40;;
34982;SDS011;21187;50.976;13.720;2023-04-22T01:49:32;14.15;;;7.78;;
34982;SDS011;21187;50.976;13.720;2023-04-22T01:54:34;12.98;;;7.38;;
34982;SDS011;21187;50.976;13.720;2023-04-22T01:59:36;17.33;;;8.13;;
34982;SDS011;21187;50.976;13.720;2023-04-22T02:04:38;12.55;;;7.25;;
34982;SDS011;21187;50.976;13.720;2023-04-22T02:09:40;14.90;;;7.40;;
34982;SDS011;21187;50.976;13.720;2023-04-22T02:14:42;18.23;;;7.72;;
34982;SDS011;21187;50.976;13.720;2023-04-22T02:19:44;13.48;;;7.72;;
34982;SDS011;21187;50.976;13.720;2023-04-22T02:24:46;19.33;;;8.20;;
34982;SDS011;21187;50.976;13.720;2023-04-22T02:29:48;14.05;;;8.25;;
34982;SDS011;21187;50.976;13.720;2023-04-22T02:34:51;18.30;;;8.30;;
34982;SDS011;21187;50.976;13.720;2023-04-22T02:39:54;21.63;;;7.85;;
34982;SDS011;21187;50.976;13.720;2023-04-22T02:44:56;22.25;;;8.35;;
34982;SDS011;21187;50.976;13.720;2023-04-22T02:49:58;19.13;;;8.93;;
34982;SDS011;21187;50.976;13.720;2023-04-22T02:54:59;19.83;;;8.55;;
34982;SDS011;21187;50.976;13.720;2023-04-22T03:00:01;17.17;;;8.68;;
34982;SDS011;21187;50.976;13.720;2023-04-22T03:05:05;17.63;;;8.52;;
34982;SDS011;21187;50.976;13.720;2023-04-22T03:10:07;13.38;;;8.45;;
34982;SDS011;21187;50.976;13.720;2023-04-22T03:15:10;15.13;;;8.57;;
34982;SDS011;21187;50.976;13.720;2023-04-22T03:20:12;17.88;;;8.27;;
34982;SDS011;21187;50.976;13.720;2023-04-22T03:25:15;13.18;;;8.40;;
34982;SDS011;21187;50.976;13.720;2023-04-22T03:30:23;14.20;;;8.05;;
34982;SDS011;21187;50.976;13.720;2023-04-22T03:35:26;19.02;;;8.57;;
34982;SDS011;21187;50.976;13.720;2023-04-22T03:40:32;15.25;;;8.48;;
34982;SDS011;21187;50.976;13.720;2023-04-22T03:45:39;17.55;;;8.80;;
34982;SDS011;21187;50.976;13.720;2023-04-22T03:50:49;17.70;;;8.80;;
34982;SDS011;21187;50.976;13.720;2023-04-22T03:55:51;22.23;;;8.95;;
34982;SDS011;21187;50.976;13.720;2023-04-22T04:00:53;16.10;;;8.45;;
34982;SDS011;21187;50.976;13.720;2023-04-22T04:05:55;17.42;;;8.48;;
34982;SDS011;21187;50.976;13.720;2023-04-22T04:10:57;22.83;;;9.02;;
34982;SDS011;21187;50.976;13.720;2023-04-22T04:16:00;16.92;;;9.15;;
34982;SDS011;21187;50.976;13.720;2023-04-22T04:21:04;16.58;;;8.73;;
34982;SDS011;21187;50.976;13.720;2023-04-22T04:26:10;19.83;;;9.32;;
34982;SDS011;21187;50.976;13.720;2023-04-22T04:31:16;15.88;;;8.73;;
34982;SDS011;21187;50.976;13.720;2023-04-22T04:36:18;20.98;;;8.55;;
34982;SDS011;21187;50.976;13.720;2023-04-22T04:41:20;23.98;;;9.52;;
34982;SDS011;21187;50.976;13.720;2023-04-22T04:46:22;20.65;;;8.85;;
34982;SDS011;21187;50.976;13.720;2023-04-22T04:51:25;21.55;;;8.60;;
34982;SDS011;21187;50.976;13.720;2023-04-22T04:56:31;18.63;;;8.38;;
34982;SDS011;21187;50.976;13.720;2023-04-22T05:01:33;17.38;;;8.63;;
34982;SDS011;21187;50.976;13.720;2023-04-22T05:06:40;23.25;;;9.18;;
34982;SDS011;21187;50.976;13.720;2023-04-22T05:11:42;19.25;;;8.75;;
34982;SDS011;21187;50.976;13.720;2023-04-22T05:16:49;24.45;;;8.60;;
34982;SDS011;21187;50.976;13.720;2023-04-22T05:21:51;17.70;;;8.98;;
34982;SDS011;21187;50.976;13.720;2023-04-22T05:26:53;18.10;;;8.95;;
34982;SDS011;21187;50.976;13.720;2023-04-22T05:31:56;16.17;;;8.75;;
34982;SDS011;21187;50.976;13.720;2023-04-22T05:36:59;22.83;;;8.73;;
34982;SDS011;21187;50.976;13.720;2023-04-22T05:42:01;19.05;;;8.77;;
34982;SDS011;21187;50.976;13.720;2023-04-22T05:47:04;15.18;;;8.55;;
34982;SDS011;21187;50.976;13.720;2023-04-22T05:52:06;17.30;;;8.90;;
34982;SDS011;21187;50.976;13.720;2023-04-22T05:57:23;16.60;;;8.88;;
34982;SDS011;21187;50.976;13.720;2023-04-22T06:02:25;15.90;;;8.95;;
34982;SDS011;21187;50.976;13.720;2023-04-22T06:07:27;20.23;;;8.82;;
34982;SDS011;21187;50.976;13.720;2023-04-22T06:12:29;19.67;;;8.20;;
34982;SDS011;21187;50.976;13.720;2023-04-22T06:17:31;19.65;;;8.77;;
34982;SDS011;21187;50.976;13.720;2023-04-22T06:22:33;14.68;;;7.93;;
34982;SDS011;21187;50.976;13.720;2023-04-22T06:27:35;20.52;;;8.30;;
34982;SDS011;21187;50.976;13.720;2023-04-22T06:32:38;20.17;;;8.40;;
34982;SDS011;21187;50.976;13.720;2023-04-22T06:37:40;17.63;;;7.85;;
34982;SDS011;21187;50.976;13.720;2023-04-22T06:42:43;15.23;;;7.93;;
34982;SDS011;21187;50.976;13.720;2023-04-22T06:48:10;13.23;;;7.53;;
34982;SDS011;21187;50.976;13.720;2023-04-22T06:53:35;14.95;;;7.32;;
34982;SDS011;21187;50.976;13.720;2023-04-22T06:58:37;13.38;;;7.20;;
34982;SDS011;21187;50.976;13.720;2023-04-22T07:03:39;17.38;;;7.53;;
34982;SDS011;21187;50.976;13.720;2023-04-22T07:08:44;17.83;;;8.48;;
34982;SDS011;21187;50.976;13.720;2023-04-22T07:13:46;21.83;;;7.82;;
34982;SDS011;21187;50.976;13.720;2023-04-22T07:18:48;20.63;;;6.93;;
34982;SDS011;21187;50.976;13.720;2023-04-22T07:23:50;14.02;;;7.63;;
34982;SDS011;21187;50.976;13.720;2023-04-22T07:28:52;16.45;;;6.82;;
34982;SDS011;21187;50.976;13.720;2023-04-22T07:33:54;18.02;;;7.70;;
34982;SDS011;21187;50.976;13.720;2023-04-22T07:38:55;16.55;;;6.45;;
34982;SDS011;21187;50.976;13.720;2023-04-22T07:43:58;13.02;;;6.80;;
34982;SDS011;21187;50.976;13.720;2023-04-22T07:49:00;15.52;;;6.95;;
34982;SDS011;21187;50.976;13.720;2023-04-22T07:54:02;17.88;;;6.85;;
34982;SDS011;21187;50.976;13.720;2023-04-22T07:59:04;16.33;;;6.72;;
34982;SDS011;21187;50.976;13.720;2023-04-22T08:04:06;13.98;;;5.85;;
34982;SDS011;21187;50.976;13.720;2023-04-22T08:09:08;15.27;;;6.07;;
34982;SDS011;21187;50.976;13.720;2023-04-22T08:14:10;10.23;;;5.72;;
34982;SDS011;21187;50.976;13.720;2023-04-22T08:19:12;18.50;;;5.32;;
34982;SDS011;21187;50.976;13.720;2023-04-22T08:24:14;12.27;;;5.82;;
34982;SDS011;21187;50.976;13.720;2023-04-22T08:29:16;15.13;;;5.28;;
34982;SDS011;21187;50.976;13.720;2023-04-22T08:34:18;12.77;;;4.63;;
34982;SDS011;21187;50.976;13.720;2023-04-22T08:39:20;10.07;;;4.97;;
34982;SDS011;21187;50.976;13.720;2023-04-22T08:44:22;16.08;;;5.32;;
34982;SDS011;21187;50.976;13.720;2023-04-22T08:49:24;25.63;;;5.85;;
34982;SDS011;21187;50.976;13.720;2023-04-22T08:54:27;10.20;;;4.88;;
34982;SDS011;21187;50.976;13.720;2023-04-22T08:59:29;11.52;;;5.07;;
34982;SDS011;21187;50.976;13.720;2023-04-22T09:04:32;7.50;;;4.20;;
34982;SDS011;21187;50.976;13.720;2023-04-22T09:09:34;8.75;;;4.47;;
34982;SDS011;21187;50.976;13.720;2023-04-22T09:14:37;8.98;;;4.20;;
34982;SDS011;21187;50.976;13.720;2023-04-22T09:19:39;13.70;;;4.10;;
34982;SDS011;21187;50.976;13.720;2023-04-22T09:24:42;19.67;;;6.85;;
34982;SDS011;21187;50.976;13.720;2023-04-22T09:29:50;13.02;;;4.28;;
34982;SDS011;21187;50.976;13.720;2023-04-22T09:34:55;11.57;;;4.28;;
34982;SDS011;21187;50.976;13.720;2023-04-22T09:39:59;10.48;;;3.30;;
34982;SDS011;21187;50.976;13.720;2023-04-22T09:45:00;11.30;;;3.97;;
34982;SDS011;21187;50.976;13.720;2023-04-22T09:50:03;18.00;;;5.00;;
34982;SDS011;21187;50.976;13.720;2023-04-22T09:55:05;11.93;;;4.25;;
34982;SDS011;21187;50.976;13.720;2023-04-22T10:00:11;11.98;;;3.22;;
34982;SDS011;21187;50.976;13.720;2023-04-22T10:05:14;14.38;;;4.07;;
34982;SDS011;21187;50.976;13.720;2023-04-22T10:10:16;7.20;;;3.40;;
34982;SDS011;21187;50.976;13.720;2023-04-22T10:15:18;17.73;;;3.88;;
34982;SDS011;21187;50.976;13.720;2023-04-22T10:20:20;9.60;;;4.18;;
34982;SDS011;21187;50.976;13.720;2023-04-22T10:25:23;8.75;;;3.55;;
34982;SDS011;21187;50.976;13.720;2023-04-22T10:30:27;14.25;;;3.55;;
34982;SDS011;21187;50.976;13.720;2023-04-22T10:35:30;6.65;;;3.65;;
34982;SDS011;21187;50.976;13.720;2023-04-22T10:40:32;11.00;;;3.25;;
34982;SDS011;21187;50.976;13.720;2023-04-22T10:45:34;6.85;;;3.40;;
34982;SDS011;21187;50.976;13.720;2023-04-22T10:50:37;11.25;;;3.90;;
34982;SDS011;21187;50.976;13.720;2023-04-22T10:55:50;7.97;;;3.72;;
34982;SDS011;21187;50.976;13.720;2023-04-22T11:00:53;6.70;;;3.83;;
34982;SDS011;21187;50.976;13.720;2023-04-22T11:11:15;7.25;;;3.90;;
34982;SDS011;21187;50.976;13.720;2023-04-22T11:16:20;9.20;;;3.88;;
34982;SDS011;21187;50.976;13.720;2023-04-22T11:21:23;12.07;;;4.93;;
34982;SDS011;21187;50.976;13.720;2023-04-22T11:26:33;10.50;;;4.28;;
34982;SDS011;21187;50.976;13.720;2023-04-22T11:31:35;9.48;;;3.85;;
34982;SDS011;21187;50.976;13.720;2023-04-22T11:36:37;10.52;;;4.53;;
34982;SDS011;21187;50.976;13.720;2023-04-22T11:41:45;12.32;;;4.28;;
34982;SDS011;21187;50.976;13.720;2023-04-22T11:46:47;10.40;;;4.78;;
34982;SDS011;21187;50.976;13.720;2023-04-22T11:51:53;10.52;;;4.50;;
34982;SDS011;21187;50.976;13.720;2023-04-22T11:56:56;13.00;;;4.35;;
34982;SDS011;21187;50.976;13.720;2023-04-22T12:01:59;8.98;;;4.13;;
34982;SDS011;21187;50.976;13.720;2023-04-22T12:07:01;13.73;;;4.68;;
34982;SDS011;21187;50.976;13.720;2023-04-22T12:12:04;9.15;;;3.97;;
34982;SDS011;21187;50.976;13.720;2023-04-22T12:17:09;11.90;;;4.50;;
34982;SDS011;21187;50.976;13.720;2023-04-22T12:22:22;9.75;;;4.07;;
34982;SDS011;21187;50.976;13.720;2023-04-22T12:27:30;11.07;;;3.88;;
34982;SDS011;21187;50.976;13.720;2023-04-22T12:32:32;8.95;;;3.80;;
34982;SDS011;21187;50.976;13.720;2023-04-22T12:37:34;10.73;;;3.92;;
34982;SDS011;21187;50.976;13.720;2023-04-22T12:42:36;10.90;;;3.88;;
34982;SDS011;21187;50.976;13.720;2023-04-22T12:47:38;5.65;;;3.10;;
34982;SDS011;21187;50.976;13.720;2023-04-22T12:52:40;5.93;;;2.85;;
34982;SDS011;21187;50.976;13.720;2023-04-22T12:57:43;5.63;;;3.38;;
34982;SDS011;21187;50.976;13.720;2023-04-22T13:02:47;9.93;;;3.75;;
34982;SDS011;21187;50.976;13.720;2023-04-22T13:07:49;10.38;;;3.60;;
34982;SDS011;21187;50.976;13.720;2023-04-22T13:13:07;9.27;;;3.38;;
34982;SDS011;21187;50.976;13.720;2023-04-22T13:18:11;9.30;;;3.50;;
34982;SDS011;21187;50.976;13.720;2023-04-22T13:23:13;8.52;;;3.15;;
34982;SDS011;21187;50.976;13.720;2023-04-22T13:28:17;10.82;;;3.88;;
34982;SDS011;21187;50.976;13.720;2023-04-22T13:33:19;6.53;;;3.42;;
34982;SDS011;21187;50.976;13.720;2023-04-22T13:38:21;9.23;;;3.67;;
34982;SDS011;21187;50.976;13.720;2023-04-22T13:43:23;11.88;;;3.85;;
34982;SDS011;21187;50.976;13.720;2023-04-22T13:48:25;9.65;;;4.10;;
34982;SDS011;21187;50.976;13.720;2023-04-22T13:53:28;7.47;;;3.25;;
34982;SDS011;21187;50.976;13.720;2023-04-22T13:58:30;10.98;;;4.53;;
34982;SDS011;21187;50.976;13.720;2023-04-22T14:03:33;5.88;;;3.50;;
34982;SDS011;21187;50.976;13.720;2023-04-22T14:08:36;10.00;;;4.03;;
34982;SDS011;21187;50.976;13.720;2023-04-22T14:13:38;9.43;;;3.75;;
34982;SDS011;21187;50.976;13.720;2023-04-22T14:18:40;9.20;;;3.50;;
34982;SDS011;21187;50.976;13.720;2023-04-22T14:23:42;9.93;;;3.92;;
34982;SDS011;21187;50.976;13.720;2023-04-22T14:28:45;10.05;;;4.22;;
34982;SDS011;21187;50.976;13.720;2023-04-22T14:33:47;11.07;;;4.45;;
34982;SDS011;21187;50.976;13.720;2023-04-22T14:38:50;10.68;;;4.35;;
34982;SDS011;21187;50.976;13.720;2023-04-22T14:43:52;7.35;;;4.07;;
34982;SDS011;21187;50.976;13.720;2023-04-22T14:48:54;10.98;;;4.32;;
34982;SDS011;21187;50.976;13.720;2023-04-22T14:53:56;9.75;;;4.32;;
34982;SDS011;21187;50.976;13.720;2023-04-22T14:58:58;8.38;;;4.20;;
34982;SDS011;21187;50.976;13.720;2023-04-22T15:04:00;9.95;;;4.40;;
34982;SDS011;21187;50.976;13.720;2023-04-22T15:09:03;9.05;;;4.45;;
34982;SDS011;21187;50.976;13.720;2023-04-22T15:14:05;9.82;;;4.57;;
34982;SDS011;21187;50.976;13.720;2023-04-22T15:19:07;8.68;;;3.97;;
34982;SDS011;21187;50.976;13.720;2023-04-22T15:24:09;10.65;;;4.43;;
34982;SDS011;21187;50.976;13.720;2023-04-22T15:29:11;9.35;;;3.78;;
34982;SDS011;21187;50.976;13.720;2023-04-22T15:34:13;8.15;;;3.83;;
34982;SDS011;21187;50.976;13.720;2023-04-22T15:39:15;12.80;;;5.25;;
34982;SDS011;21187;50.976;13.720;2023-04-22T15:44:17;8.15;;;4.30;;
34982;SDS011;21187;50.976;13.720;2023-04-22T15:49:19;9.65;;;4.47;;
34982;SDS011;21187;50.976;13.720;2023-04-22T15:54:21;7.25;;;4.25;;
34982;SDS011;21187;50.976;13.720;2023-04-22T15:59:22;22.55;;;4.93;;
34982;SDS011;21187;50.976;13.720;2023-04-22T16:04:24;13.95;;;5.18;;
34982;SDS011;21187;50.976;13.720;2023-04-22T16:09:27;11.48;;;5.25;;
34982;SDS011;21187;50.976;13.720;2023-04-22T16:14:28;15.30;;;5.72;;
34982;SDS011;21187;50.976;13.720;2023-04-22T16:19:30;15.63;;;5.90;;
34982;SDS011;21187;50.976;13.720;2023-04-22T16:24:33;12.80;;;5.50;;
34982;SDS011;21187;50.976;13.720;2023-04-22T16:29:35;7.65;;;4.45;;
34982;SDS011;21187;50.976;13.720;2023-04-22T16:34:37;17.00;;;5.43;;
34982;SDS011;21187;50.976;13.720;2023-04-22T16:39:39;13.35;;;5.78;;
34982;SDS011;21187;50.976;13.720;2023-04-22T16:44:41;11.07;;;4.88;;
34982;SDS011;21187;50.976;13.720;2023-04-22T16:49:43;13.80;;;5.00;;
34982;SDS011;21187;50.976;13.720;2023-04-22T16:54:45;10.88;;;5.30;;
34982;SDS011;21187;50.976;13.720;2023-04-22T16:59:47;7.95;;;4.45;;
34982;SDS011;21187;50.976;13.720;2023-04-22T17:04:49;13.05;;;5.55;;
34982;SDS011;21187;50.976;13.720;2023-04-22T17:09:51;15.20;;;5.55;;
34982;SDS011;21187;50.976;13.720;2023-04-22T17:14:53;16.45;;;6.60;;
34982;SDS011;21187;50.976;13.720;2023-04-22T17:19:55;13.48;;;6.65;;
34982;SDS011;21187;50.976;13.720;2023-04-22T17:24:57;9.80;;;4.60;;
34982;SDS011;21187;50.976;13.720;2023-04-22T17:29:59;9.52;;;4.97;;
34982;SDS011;21187;50.976;13.720;2023-04-22T17:35:01;14.50;;;4.35;;
34982;SDS011;21187;50.976;13.720;2023-04-22T17:40:03;7.40;;;3.92;;
34982;SDS011;21187;50.976;13.720;2023-04-22T17:45:09;7.88;;;4.68;;
34982;SDS011;21187;50.976;13.720;2023-04-22T17:50:11;11.00;;;5.03;;
34982;SDS011;21187;50.976;13.720;2023-04-22T17:55:13;12.23;;;5.93;;
34982;SDS011;21187;50.976;13.720;2023-04-22T18:00:15;12.75;;;5.50;;
34982;SDS011;21187;50.976;13.720;2023-04-22T18:05:18;13.50;;;5.55;;
34982;SDS011;21187;50.976;13.720;2023-04-22T18:10:20;17.48;;;6.90;;
34982;SDS011;21187;50.976;13.720;2023-04-22T18:15:23;17.80;;;8.25;;
34982;SDS011;21187;50.976;13.720;2023-04-22T18:20:25;19.67;;;9.95;;
34982;SDS011;21187;50.976;13.720;2023-04-22T18:25:26;20.73;;;9.75;;
34982;SDS011;21187;50.976;13.720;2023-04-22T18:30:29;38.25;;;16.55;;
34982;SDS011;21187;50.976;13.720;2023-04-22T18:35:33;29.42;;;10.65;;
34982;SDS011;21187;50.976;13.720;2023-04-22T18:40:36;28.13;;;10.93;;
34982;SDS011;21187;50.976;13.720;2023-04-22T18:45:38;34.55;;;14.07;;
34982;SDS011;21187;50.976;13.720;2023-04-22T18:50:40;25.05;;;10.60;;
34982;SDS011;21187;50.976;13.720;2023-04-22T18:55:43;18.05;;;8.45;;
34982;SDS011;21187;50.976;13.720;2023-04-22T19:00:46;27.33;;;11.63;;
34982;SDS011;21187;50.976;13.720;2023-04-22T19:05:48;28.05;;;12.60;;
34982;SDS011;21187;50.976;13.720;2023-04-22T19:10:50;14.57;;;6.68;;
34982;SDS011;21187;50.976;13.720;2023-04-22T19:15:53;10.30;;;5.80;;
34982;SDS011;21187;50.976;13.720;2023-04-22T19:20:55;12.20;;;4.57;;
34982;SDS011;21187;50.976;13.720;2023-04-22T19:25:57;14.90;;;6.18;;
34982;SDS011;21187;50.976;13.720;2023-04-22T19:31:00;10.18;;;5.93;;
34982;SDS011;21187;50.976;13.720;2023-04-22T19:36:03;18.02;;;7.97;;
34982;SDS011;21187;50.976;13.720;2023-04-22T19:41:06;21.92;;;5.95;;
34982;SDS011;21187;50.976;13.720;2023-04-22T19:46:09;12.57;;;6.68;;
34982;SDS011;21187;50.976;13.720;2023-04-22T19:51:11;11.35;;;5.20;;
34982;SDS011;21187;50.976;13.720;2023-04-22T19:56:13;13.25;;;6.05;;
34982;SDS011;21187;50.976;13.720;2023-04-22T20:01:16;14.20;;;7.38;;
34982;SDS011;21187;50.976;13.720;2023-04-22T20:06:18;17.40;;;7.47;;
34982;SDS011;21187;50.976;13.720;2023-04-22T20:11:22;16.05;;;8.48;;
34982;SDS011;21187;50.976;13.720;2023-04-22T20:16:29;14.65;;;7.88;;
34982;SDS011;21187;50.976;13.720;2023-04-22T20:21:32;22.85;;;8.93;;
34982;SDS011;21187;50.976;13.720;2023-04-22T20:26:35;18.98;;;6.88;;
34982;SDS011;21187;50.976;13.720;2023-04-22T20:31:37;11.77;;;6.18;;
34982;SDS011;21187;50.976;13.720;2023-04-22T20:36:40;15.38;;;5.97;;
34982;SDS011;21187;50.976;13.720;2023-04-22T20:41:43;21.42;;;6.05;;
34982;SDS011;21187;50.976;13.720;2023-04-22T20:46:46;21.48;;;6.05;;
34982;SDS011;21187;50.976;13.720;2023-04-22T20:51:49;14.65;;;6.30;;
34982;SDS011;21187;50.976;13.720;2023-04-22T20:56:51;9.75;;;5.68;;
34982;SDS011;21187;50.976;13.720;2023-04-22T21:01:53;14.23;;;5.13;;
34982;SDS011;21187;50.976;13.720;2023-04-22T21:06:56;11.55;;;5.38;;
34982;SDS011;21187;50.976;13.720;2023-04-22T21:12:01;12.48;;;5.80;;
34982;SDS011;21187;50.976;13.720;2023-04-22T21:17:08;12.75;;;5.90;;
34982;SDS011;21187;50.976;13.720;2023-04-22T21:22:19;16.48;;;4.90;;
34982;SDS011;21187;50.976;13.720;2023-04-22T21:27:22;9.95;;;4.45;;
34982;SDS011;21187;50.976;13.720;2023-04-22T21:32:24;10.20;;;5.22;;
34982;SDS011;21187;50.976;13.720;2023-04-22T21:37:27;10.55;;;3.65;;
34982;SDS011;21187;50.976;13.720;2023-04-22T21:42:29;16.92;;;7.90;;
34982;SDS011;21187;50.976;13.720;2023-04-22T21:47:30;16.70;;;5.18;;
34982;SDS011;21187;50.976;13.720;2023-04-22T21:52:32;13.35;;;5.72;;
34982;SDS011;21187;50.976;13.720;2023-04-22T21:57:34;13.23;;;5.30;;
34982;SDS011;21187;50.976;13.720;2023-04-22T22:02:36;7.75;;;3.97;;
34982;SDS011;21187;50.976;13.720;2023-04-22T22:07:38;25.58;;;10.45;;
34982;SDS011;21187;50.976;13.720;2023-04-22T22:12:41;15.43;;;5.28;;
34982;SDS011;21187;50.976;13.720;2023-04-22T22:17:43;8.95;;;3.75;;
34982;SDS011;21187;50.976;13.720;2023-04-22T22:22:46;16.13;;;4.95;;
34982;SDS011;21187;50.976;13.720;2023-04-22T22:27:48;10.85;;;3.80;;
34982;SDS011;21187;50.976;13.720;2023-04-22T22:32:50;11.07;;;4.25;;
34982;SDS011;21187;50.976;13.720;2023-04-22T22:37:52;16.35;;;4.50;;
34982;SDS011;21187;50.976;13.720;2023-04-22T22:42:53;14.15;;;4.50;;
34982;SDS011;21187;50.976;13.720;2023-04-22T22:47:56;10.77;;;4.63;;
34982;SDS011;21187;50.976;13.720;2023-04-22T22:52:58;7.75;;;4.03;;
34982;SDS011;21187;50.976;13.720;2023-04-22T22:58:01;13.65;;;3.92;;
34982;SDS011;21187;50.976;13.720;2023-04-22T23:03:02;10.45;;;4.57;;
34982;SDS011;21187;50.976;13.720;2023-04-22T23:08:05;13.52;;;4.38;;
34982;SDS011;21187;50.976;13.720;2023-04-22T23:13:07;8.55;;;3.97;;
34982;SDS011;21187;50.976;13.720;2023-04-22T23:18:09;11.40;;;4.40;;
34982;SDS011;21187;50.976;13.720;2023-04-22T23:23:13;11.20;;;3.72;;
34982;SDS011;21187;50.976;13.720;2023-04-22T23:28:16;7.55;;;3.70;;
34982;SDS011;21187;50.976;13.720;2023-04-22T23:33:19;7.75;;;3.33;;
34982;SDS011;21187;50.976;13.720;2023-04-22T23:38:25;9.73;;;3.78;;
34982;SDS011;21187;50.976;13.720;2023-04-22T23:43:27;7.85;;;3.92;;
34982;SDS011;21187;50.976;13.720;2023-04-22T23:48:29;6.47;;;3.22;;
34982;SDS011;21187;50.976;13.720;2023-04-22T23:53:32;7.75;;;3.03;;
34982;SDS011;21187;50.976;13.720;2023-04-22T23:58:34;6.18;;;3.00;;
